Torbali, Turkey
Current Conditions -  °F | °C
As of 9:50 PM on Friday 24 Oct 2014 (Local Time) from LTBJ Reporting Station
Rain Showers Rain Showers  
Wind Chill: 61°   Ceiling: 9000
Heat Index: 61°   Visibility: 5mi
Dew Point: 59°   Wind: 5mph
Humidity: 94%   Direction: 200°SSW
Pressure: 29.74"   Gusts: NA
Location:  38.17°N, 27.36°E
Report Text: LTBJ 241850Z 20004KT 140V240 8000 -SHRA FEW020CB SCT030 BKN090 16/15 Q1007 R162///95 TEMPO FM2000 -TSRA
Loading
Personal Weather Stations






























Interactive Weather Map
Tropical Storm Tracking
New forecast layout! Learn more

10-Day Weather Forecast

Advertisements
Track Severe Weather on mobile